Time;durP1;ratioP1;P1;durP2;ratioP2;P2;SDS_P1;SDS_P2;PMS_P1;PMS_P2;Temp;Humidity;BMP_temperature;BMP_pressure;BME280_temperature;BME280_humidity;BME280_pressure;Samples;Min_cycle;Max_cycle;Signal;HPM_P1;HPM_P2
2021/03/28 00:01:14;;;;;;;31.70;21.00;;;13.20;99.90;;;;;;4990153;28;20516;-74
2021/03/28 00:03:56;;;;;;;32.83;18.50;;;13.20;99.90;;;;;;4986099;28;20049;-74
2021/03/28 00:06:58;;;;;;;24.05;17.77;;;13.20;99.90;;;;;;4985749;28;20026;-74
2021/03/28 00:09:38;;;;;;;25.83;17.20;;;13.40;99.90;;;;;;4989053;28;20042;-74
2021/03/28 00:12:09;;;;;;;24.58;17.52;;;13.40;99.90;;;;;;4983870;28;20039;-74
2021/03/28 00:14:42;;;;;;;23.13;16.15;;;13.50;99.90;;;;;;4983677;28;20480;-72
2021/03/28 00:17:20;;;;;;;21.88;15.25;;;13.50;99.90;;;;;;4989987;28;20640;-73
2021/03/28 00:20:06;;;;;;;25.42;15.80;;;13.50;99.90;;;;;;4988259;28;20030;-73
2021/03/28 00:22:48;;;;;;;17.58;14.63;;;13.40;99.90;;;;;;4986861;28;20481;-73
2021/03/28 00:25:36;;;;;;;22.63;15.95;;;13.60;99.90;;;;;;4972881;28;20566;-74
2021/03/28 00:28:19;;;;;;;23.60;15.82;;;13.60;99.90;;;;;;4989509;28;20026;-74
2021/03/28 00:30:45;;;;;;;23.20;17.65;;;13.60;99.90;;;;;;4988102;28;20022;-74
2021/03/28 00:33:13;;;;;;;22.80;15.35;;;13.60;99.90;;;;;;4988057;28;20546;-73
2021/03/28 00:35:50;;;;;;;25.08;16.27;;;13.60;99.90;;;;;;4991820;28;20027;-75
2021/03/28 00:38:29;;;;;;;18.27;16.25;;;13.60;99.90;;;;;;4990533;28;20110;-74
2021/03/28 00:41:40;;;;;;;22.52;15.45;;;13.70;99.90;;;;;;4991958;28;20042;-74
2021/03/28 00:44:19;;;;;;;22.05;14.68;;;13.70;99.90;;;;;;4986891;28;20053;-75
2021/03/28 00:46:50;;;;;;;19.80;15.73;;;13.70;99.90;;;;;;4989571;28;20079;-75
2021/03/28 00:49:40;;;;;;;17.20;13.93;;;13.70;99.90;;;;;;4990616;28;20101;-75
2021/03/28 00:52:14;;;;;;;19.80;14.15;;;13.70;99.90;;;;;;4989644;28;20041;-74
2021/03/28 00:54:50;;;;;;;34.55;16.92;;;13.60;99.90;;;;;;4991161;28;20081;-74
2021/03/28 00:57:35;;;;;;;21.00;14.63;;;13.80;99.90;;;;;;4990443;28;20022;-75
2021/03/28 01:00:19;;;;;;;18.10;14.23;;;13.80;99.90;;;;;;4989381;28;20084;-74
2021/03/28 01:03:06;;;;;;;21.50;12.48;;;13.70;99.90;;;;;;4991125;28;20030;-75
2021/03/28 01:05:41;;;;;;;20.10;11.75;;;13.70;99.90;;;;;;4986372;28;20030;-74
2021/03/28 01:08:27;;;;;;;18.50;12.77;;;13.60;99.90;;;;;;4990556;28;20031;-75
2021/03/28 01:11:11;;;;;;;19.42;12.73;;;13.80;99.90;;;;;;4989085;28;20030;-74
2021/03/28 01:14:14;;;;;;;16.58;13.13;;;13.90;99.90;;;;;;4988122;28;20081;-74
2021/03/28 01:17:17;;;;;;;15.00;11.52;;;13.90;99.90;;;;;;4986068;28;20054;-73
2021/03/28 01:20:12;;;;;;;22.55;13.80;;;13.90;99.90;;;;;;4987770;28;20537;-74
2021/03/28 01:22:42;;;;;;;22.05;15.20;;;13.70;99.90;;;;;;4987621;28;20026;-74
2021/03/28 01:25:31;;;;;;;25.13;17.10;;;13.50;99.90;;;;;;4987146;28;20113;-75
2021/03/28 01:28:01;;;;;;;24.10;16.90;;;13.20;99.90;;;;;;4990158;28;20022;-73
2021/03/28 01:30:52;;;;;;;21.83;16.27;;;13.20;99.90;;;;;;4989437;28;20284;-74
2021/03/28 01:33:32;;;;;;;23.85;15.70;;;13.00;99.90;;;;;;4988456;28;20428;-75
2021/03/28 01:36:08;;;;;;;19.90;17.50;;;12.90;99.90;;;;;;4991014;28;20092;-72
2021/03/28 01:38:46;;;;;;;21.85;16.92;;;12.70;99.90;;;;;;4994137;28;20022;-73
2021/03/28 01:41:23;;;;;;;21.30;15.25;;;12.70;99.90;;;;;;5001276;28;20317;-74
2021/03/28 01:44:12;;;;;;;18.65;15.90;;;12.70;99.90;;;;;;4989231;28;20101;-74
2021/03/28 01:47:25;;;;;;;21.65;17.30;;;12.70;99.90;;;;;;4982927;28;20034;-73
2021/03/28 01:50:07;;;;;;;20.95;17.23;;;12.70;99.90;;;;;;4952968;28;20054;-74
2021/03/28 01:52:42;;;;;;;25.45;17.58;;;12.60;99.90;;;;;;4943461;28;20031;-74
2021/03/28 01:55:25;;;;;;;20.67;14.65;;;12.60;99.90;;;;;;4974744;28;20038;-72
2021/03/28 01:58:32;;;;;;;26.98;17.30;;;12.50;99.90;;;;;;4989953;28;20489;-74
2021/03/28 02:01:20;;;;;;;21.40;16.40;;;12.50;99.90;;;;;;4981584;28;20054;-73
2021/03/28 02:03:56;;;;;;;23.63;18.48;;;12.50;99.90;;;;;;4985952;28;20492;-74
2021/03/28 02:06:40;;;;;;;21.60;16.08;;;12.60;99.90;;;;;;4990899;28;20037;-74
2021/03/28 02:09:25;;;;;;;24.33;16.23;;;12.60;99.90;;;;;;4988738;28;20041;-73
2021/03/28 02:12:18;;;;;;;17.98;16.25;;;12.60;99.90;;;;;;4990226;28;20060;-73
2021/03/28 02:15:05;;;;;;;21.02;16.85;;;12.50;99.90;;;;;;4972196;28;20121;-74
2021/03/28 02:18:01;;;;;;;18.45;15.45;;;12.50;99.90;;;;;;4984467;28;20026;-74
2021/03/28 02:20:48;;;;;;;18.88;16.02;;;12.60;99.90;;;;;;4984401;28;20559;-74
2021/03/28 02:23:25;;;;;;;18.88;15.48;;;12.60;99.90;;;;;;4986973;28;20057;-74
2021/03/28 02:26:19;;;;;;;15.80;14.13;;;12.50;99.90;;;;;;4988892;28;20101;-74
2021/03/28 02:29:05;;;;;;;21.02;16.23;;;12.50;99.90;;;;;;4978555;28;20042;-74
2021/03/28 02:31:43;;;;;;;19.48;15.35;;;12.50;99.90;;;;;;4980437;28;20027;-75
2021/03/28 02:34:27;;;;;;;18.70;15.13;;;12.60;99.90;;;;;;4989192;28;20019;-75
2021/03/28 02:37:12;;;;;;;18.10;16.23;;;12.60;99.90;;;;;;4989786;28;20034;-74
2021/03/28 02:40:04;;;;;;;21.65;15.95;;;12.60;99.90;;;;;;4968532;28;20027;-76
2021/03/28 02:42:54;;;;;;;16.53;14.83;;;12.60;99.90;;;;;;4988687;28;20550;-76
2021/03/28 02:45:27;;;;;;;20.83;15.38;;;12.60;99.90;;;;;;4989686;28;20019;-75
2021/03/28 02:48:20;;;;;;;17.45;15.55;;;12.60;99.90;;;;;;4988882;28;20057;-74
2021/03/28 02:51:22;;;;;;;21.52;14.55;;;12.70;99.90;;;;;;4986485;28;20037;-75
2021/03/28 02:54:07;;;;;;;20.77;14.75;;;12.70;99.90;;;;;;4989032;28;20041;-74
2021/03/28 02:56:46;;;;;;;21.75;16.20;;;12.70;99.90;;;;;;4984715;28;20023;-75
2021/03/28 02:59:35;;;;;;;21.05;16.75;;;12.70;99.90;;;;;;4989814;28;20022;-73
2021/03/28 03:02:19;;;;;;;22.42;16.42;;;12.70;99.90;;;;;;4970404;28;20068;-76
2021/03/28 03:05:00;;;;;;;16.70;13.23;;;12.80;99.90;;;;;;4988574;28;20081;-73
2021/03/28 03:08:17;;;;;;;21.50;17.02;;;12.80;99.90;;;;;;4983191;28;20027;-74
2021/03/28 03:10:51;;;;;;;21.92;16.67;;;12.80;99.90;;;;;;4944765;28;20118;-74
2021/03/28 03:13:34;;;;;;;25.95;16.98;;;12.70;99.90;;;;;;4946211;28;20082;-74
2021/03/28 03:16:22;;;;;;;21.10;16.88;;;12.70;99.90;;;;;;4978626;28;20038;-74
2021/03/28 03:19:08;;;;;;;18.98;15.52;;;12.60;99.90;;;;;;4988789;28;20109;-74
2021/03/28 03:22:11;;;;;;;20.13;16.15;;;12.70;99.90;;;;;;4975821;28;20065;-74
2021/03/28 03:25:05;;;;;;;20.90;15.70;;;12.80;99.90;;;;;;4985521;28;20101;-74
2021/03/28 03:28:19;;;;;;;18.48;15.50;;;12.90;99.90;;;;;;4982400;28;20154;-75
2021/03/28 03:31:02;;;;;;;23.02;17.48;;;12.90;99.90;;;;;;4949318;28;20150;-75
2021/03/28 03:33:49;;;;;;;20.02;16.17;;;12.90;99.90;;;;;;4989099;28;20031;-73
2021/03/28 03:36:26;;;;;;;20.58;16.77;;;12.90;99.90;;;;;;4991647;28;20121;-74
2021/03/28 03:39:00;;;;;;;22.05;15.98;;;12.90;99.90;;;;;;4993104;28;20108;-74
2021/03/28 03:41:51;;;;;;;21.70;15.98;;;12.90;99.90;;;;;;4986411;28;20037;-74
2021/03/28 03:44:35;;;;;;;19.23;16.27;;;12.90;99.90;;;;;;4991761;28;20057;-74
2021/03/28 03:47:26;;;;;;;21.65;16.42;;;12.90;99.90;;;;;;4990581;28;20022;-74
2021/03/28 03:50:12;;;;;;;20.42;16.15;;;12.90;99.90;;;;;;4993627;28;20026;-74
2021/03/28 03:53:04;;;;;;;27.35;15.55;;;13.00;99.90;;;;;;4992394;28;20034;-74
2021/03/28 03:55:43;;;;;;;19.30;17.30;;;13.10;99.90;;;;;;4993144;28;20041;-74
2021/03/28 03:58:26;;;;;;;23.75;19.73;;;13.00;99.90;;;;;;4992554;28;20496;-75
2021/03/28 04:01:14;;;;;;;23.60;19.05;;;12.90;99.90;;;;;;4992615;28;20041;-75
2021/03/28 04:03:58;;;;;;;22.45;18.00;;;12.90;99.90;;;;;;4992888;28;20400;-74
2021/03/28 04:06:55;;;;;;;21.73;17.73;;;12.90;99.90;;;;;;4972005;28;20026;-74
2021/03/28 04:09:31;;;;;;;22.63;20.17;;;12.90;99.90;;;;;;4992543;28;20026;-73
2021/03/28 04:12:25;;;;;;;24.05;18.90;;;12.90;99.90;;;;;;4991516;28;20030;-75
2021/03/28 04:15:14;;;;;;;21.85;19.58;;;12.80;99.90;;;;;;4998603;28;20045;-75
2021/03/28 04:17:49;;;;;;;22.20;19.77;;;12.70;99.90;;;;;;4998276;28;20058;-74
2021/03/28 04:20:33;;;;;;;22.50;20.10;;;12.80;99.90;;;;;;4991998;28;20026;-74
2021/03/28 04:23:21;;;;;;;25.15;19.40;;;12.80;99.90;;;;;;4991748;28;20034;-75
2021/03/28 04:26:13;;;;;;;26.00;20.10;;;12.70;99.90;;;;;;4993386;28;20117;-74
2021/03/28 04:29:07;;;;;;;23.10;20.58;;;12.70;99.90;;;;;;4988655;28;20362;-74
2021/03/28 04:31:39;;;;;;;23.25;20.05;;;12.60;99.90;;;;;;4978827;28;20026;-75
2021/03/28 04:34:14;;;;;;;23.63;21.15;;;12.50;99.90;;;;;;4987872;28;20042;-74
2021/03/28 04:37:10;;;;;;;26.27;23.50;;;12.50;99.90;;;;;;4987568;28;20038;-75
2021/03/28 04:40:00;;;;;;;22.67;20.45;;;12.50;99.90;;;;;;4988081;28;20022;-75
2021/03/28 04:43:03;;;;;;;23.55;20.27;;;12.60;99.90;;;;;;4990939;28;20042;-75
2021/03/28 04:45:31;;;;;;;26.52;19.50;;;12.80;99.90;;;;;;4990503;28;20022;-74
2021/03/28 04:48:24;;;;;;;21.83;19.63;;;12.80;99.90;;;;;;4989463;28;20025;-73
2021/03/28 04:51:11;;;;;;;23.25;20.73;;;12.80;99.90;;;;;;4988704;28;20030;-73
2021/03/28 04:54:04;;;;;;;22.80;20.48;;;12.80;99.90;;;;;;4988619;28;20475;-73
2021/03/28 04:56:59;;;;;;;22.65;20.45;;;12.70;99.90;;;;;;4988651;28;20157;-73
2021/03/28 04:59:54;;;;;;;21.55;18.10;;;12.70;99.90;;;;;;4987254;28;20108;-74
2021/03/28 05:03:00;;;;;;;24.83;18.98;;;12.60;99.90;;;;;;4991143;28;20049;-76
2021/03/28 05:05:35;;;;;;;23.30;18.45;;;12.60;99.90;;;;;;4986559;28;20027;-75
2021/03/28 05:08:37;;;;;;;23.95;19.40;;;12.60;99.90;;;;;;4988860;28;20038;-75
2021/03/28 05:11:30;;;;;;;22.60;19.88;;;12.60;99.90;;;;;;4990068;28;20030;-75
2021/03/28 05:14:26;;;;;;;25.23;19.02;;;12.60;99.90;;;;;;4988118;28;20027;-74
2021/03/28 05:17:26;;;;;;;23.73;19.25;;;12.60;99.90;;;;;;4991362;28;20027;-75
2021/03/28 05:20:19;;;;;;;21.08;17.88;;;12.60;99.90;;;;;;4988664;28;20034;-75
2021/03/28 05:23:18;;;;;;;21.45;18.67;;;12.60;99.90;;;;;;4989995;28;20049;-74
2021/03/28 05:26:01;;;;;;;20.55;17.45;;;12.60;99.90;;;;;;4991035;28;20022;-74
2021/03/28 05:28:36;;;;;;;21.38;18.75;;;12.60;99.90;;;;;;4988791;28;20049;-74
2021/03/28 05:31:23;;;;;;;21.98;19.67;;;12.60;99.90;;;;;;4989693;28;20034;-74
2021/03/28 05:34:17;;;;;;;23.55;19.35;;;12.60;99.90;;;;;;4988367;28;20033;-75
2021/03/28 05:37:12;;;;;;;20.40;17.48;;;12.60;99.90;;;;;;4971690;28;20447;-74
2021/03/28 05:39:51;;;;;;;24.55;19.23;;;12.70;99.90;;;;;;4986788;28;20381;-74
2021/03/28 05:42:43;;;;;;;23.10;19.00;;;12.70;99.90;;;;;;4988036;28;20022;-74
2021/03/28 05:45:29;;;;;;;20.05;17.40;;;12.80;99.90;;;;;;4948998;28;20562;-75
2021/03/28 05:48:20;;;;;;;18.95;16.92;;;12.70;99.90;;;;;;4987994;28;20031;-75
2021/03/28 05:51:09;;;;;;;21.67;17.85;;;12.70;99.90;;;;;;4987260;28;20034;-74
2021/03/28 05:53:56;;;;;;;24.75;17.00;;;12.70;99.90;;;;;;4993102;28;20064;-75
2021/03/28 05:56:47;;;;;;;24.05;18.55;;;12.90;99.90;;;;;;4987824;28;20022;-76
2021/03/28 05:59:15;;;;;;;21.23;19.10;;;13.00;99.90;;;;;;4988961;28;20034;-74
2021/03/28 06:02:38;;;;;;;22.50;18.58;;;13.00;99.90;;;;;;4989587;28;20080;-75
2021/03/28 06:05:22;;;;;;;20.42;17.98;;;13.10;99.90;;;;;;4978237;28;20042;-75
2021/03/28 06:08:19;;;;;;;22.95;17.08;;;13.20;99.90;;;;;;4987394;28;20041;-75
2021/03/28 06:11:19;;;;;;;21.60;18.77;;;13.20;99.90;;;;;;4989597;28;20053;-75
2021/03/28 06:13:51;;;;;;;22.00;17.52;;;13.30;99.90;;;;;;4990947;28;20057;-75
2021/03/28 06:16:46;;;;;;;24.42;17.48;;;13.40;99.90;;;;;;4990040;28;20072;-75
2021/03/28 06:19:23;;;;;;;18.95;16.27;;;13.50;99.90;;;;;;4990095;28;20058;-75
2021/03/28 06:21:58;;;;;;;22.15;16.67;;;13.60;99.90;;;;;;4989401;28;20064;-76
2021/03/28 06:24:44;;;;;;;20.67;16.52;;;13.60;99.90;;;;;;4972385;28;20069;-76
2021/03/28 06:27:48;;;;;;;18.05;16.25;;;13.70;99.90;;;;;;4990631;28;20081;-76
2021/03/28 06:30:45;;;;;;;20.73;16.38;;;13.80;99.90;;;;;;4975813;28;20404;-75
2021/03/28 06:33:46;;;;;;;19.83;14.73;;;13.90;99.90;;;;;;4990406;28;20096;-75
2021/03/28 06:36:59;;;;;;;19.08;14.55;;;14.00;99.90;;;;;;4951620;28;20032;-75
2021/03/28 06:40:02;;;;;;;18.48;14.93;;;13.90;99.90;;;;;;4990339;28;20024;-75
2021/03/28 06:42:45;;;;;;;14.93;13.10;;;14.00;99.90;;;;;;4984169;28;20406;-75
2021/03/28 06:45:33;;;;;;;19.75;15.20;;;14.10;99.90;;;;;;4989165;28;20054;-75
2021/03/28 06:48:13;;;;;;;19.17;15.68;;;14.20;99.90;;;;;;4989099;28;20057;-74
2021/03/28 06:51:01;;;;;;;18.83;14.68;;;14.30;99.90;;;;;;4997884;28;20253;-73
2021/03/28 06:53:36;;;;;;;18.48;15.13;;;14.50;99.90;;;;;;4996082;28;20057;-76
2021/03/28 06:56:17;;;;;;;16.73;14.73;;;14.60;99.90;;;;;;4989155;28;20741;-77
2021/03/28 06:59:23;;;;;;;15.38;13.68;;;14.80;99.90;;;;;;4988144;28;20030;-75
2021/03/28 07:02:00;;;;;;;14.73;13.27;;;14.80;99.90;;;;;;4987053;28;20037;-75
2021/03/28 07:04:38;;;;;;;26.30;14.55;;;14.90;99.90;;;;;;4986512;28;20057;-75
2021/03/28 07:07:22;;;;;;;14.70;11.68;;;15.00;99.90;;;;;;4993506;28;20108;-74
2021/03/28 07:09:50;;;;;;;21.98;13.55;;;14.90;99.90;;;;;;4995040;28;20034;-76
2021/03/28 07:12:25;;;;;;;23.65;13.32;;;15.00;99.90;;;;;;4991887;28;20539;-76
2021/03/28 07:14:54;;;;;;;19.85;12.27;;;14.90;99.90;;;;;;4998481;28;20077;-75
2021/03/28 07:17:23;;;;;;;19.40;13.65;;;14.90;99.90;;;;;;4993368;28;20586;-75
2021/03/28 07:20:06;;;;;;;16.88;14.20;;;15.00;99.90;;;;;;4996892;28;20620;-76
2021/03/28 07:22:43;;;;;;;18.55;13.90;;;15.10;99.90;;;;;;4992833;28;20030;-71
2021/03/28 07:25:27;;;;;;;18.10;13.65;;;15.30;99.90;;;;;;4993371;28;20031;-72
2021/03/28 07:28:30;;;;;;;15.60;13.98;;;15.50;99.90;;;;;;4990056;28;20022;-70
2021/03/28 07:30:59;;;;;;;17.50;13.57;;;15.50;99.90;;;;;;4992510;28;20085;-71
2021/03/28 07:34:01;;;;;;;15.02;12.32;;;15.60;99.90;;;;;;4987407;28;20050;-73
2021/03/28 07:37:09;;;;;;;18.98;13.35;;;15.60;99.90;;;;;;4990345;28;20015;-70
2021/03/28 07:40:09;;;;;;;17.85;12.93;;;15.40;99.90;;;;;;4983696;28;20022;-70
2021/03/28 07:42:53;;;;;;;15.85;11.15;;;15.30;99.90;;;;;;4987760;28;20129;-73
2021/03/28 07:45:44;;;;;;;19.63;11.93;;;15.40;99.90;;;;;;4993155;28;20033;-71
2021/03/28 07:48:48;;;;;;;17.42;12.45;;;15.50;99.90;;;;;;4992219;28;20050;-71
2021/03/28 07:51:44;;;;;;;19.52;12.30;;;15.60;99.90;;;;;;4987549;28;20037;-71
2021/03/28 07:54:37;;;;;;;15.10;13.55;;;15.80;99.90;;;;;;4990564;28;20514;-71
2021/03/28 07:57:29;;;;;;;;;;;;;;;;;;;;;
2021/03/28 08:00:17;;;;;;;23.10;12.93;;;15.90;99.90;;;;;;4988246;28;20030;-72
2021/03/28 08:03:06;;;;;;;15.45;11.65;;;15.90;99.90;;;;;;4987880;28;20066;-71
2021/03/28 08:05:49;;;;;;;19.42;13.32;;;15.80;99.90;;;;;;4992157;28;20515;-70
2021/03/28 08:08:49;;;;;;;13.65;12.18;;;15.80;99.90;;;;;;4992346;28;20077;-72
2021/03/28 08:11:36;;;;;;;18.27;12.15;;;15.80;99.90;;;;;;4990790;28;20023;-70
2021/03/28 08:14:32;;;;;;;16.10;12.35;;;15.70;99.90;;;;;;4990590;28;20019;-70
2021/03/28 08:17:22;;;;;;;16.85;12.43;;;15.50;99.90;;;;;;4992835;28;20041;-69
2021/03/28 08:19:55;;;;;;;17.83;12.63;;;15.50;99.90;;;;;;4990894;28;20030;-68
2021/03/28 08:23:01;;;;;;;26.17;13.85;;;15.70;99.90;;;;;;4992301;28;20050;-70
2021/03/28 08:25:50;;;;;;;15.30;11.93;;;15.80;99.90;;;;;;4992554;28;20030;-69
2021/03/28 08:28:40;;;;;;;17.52;12.60;;;15.80;99.90;;;;;;4992840;28;20468;-70
2021/03/28 08:31:38;;;;;;;18.23;13.32;;;15.90;99.90;;;;;;4993312;28;20085;-71
2021/03/28 08:34:43;;;;;;;23.90;13.38;;;16.30;99.90;;;;;;4993209;28;20464;-66
2021/03/28 08:37:36;;;;;;;20.40;10.95;;;16.40;99.90;;;;;;4992477;28;20027;-65
2021/03/28 08:40:32;;;;;;;13.88;10.75;;;16.30;99.90;;;;;;4991146;28;20101;-66
2021/03/28 08:43:33;;;;;;;16.35;12.07;;;16.30;99.90;;;;;;4975344;28;20046;-67
2021/03/28 08:46:27;;;;;;;14.55;12.20;;;16.10;99.90;;;;;;4992075;28;20033;-63
2021/03/28 08:49:26;;;;;;;20.60;14.35;;;16.10;99.90;;;;;;4992060;28;20034;-65
2021/03/28 08:52:21;;;;;;;23.77;12.57;;;16.20;99.90;;;;;;4992232;28;20033;-66
2021/03/28 08:55:29;;;;;;;13.50;11.63;;;16.30;99.90;;;;;;4976314;28;20406;-66
2021/03/28 08:58:05;;;;;;;15.48;13.38;;;16.50;99.90;;;;;;4992095;28;20030;-64
2021/03/28 09:00:35;;;;;;;18.85;12.15;;;16.50;99.90;;;;;;4974756;28;20077;-65
2021/03/28 09:03:35;;;;;;;21.42;11.63;;;16.40;99.90;;;;;;4992252;28;20027;-65
2021/03/28 09:06:27;;;;;;;13.45;10.23;;;16.50;99.90;;;;;;4992173;28;20049;-67
2021/03/28 09:09:08;;;;;;;24.08;12.75;;;16.40;99.90;;;;;;4975619;28;20072;-65
2021/03/28 09:12:14;;;;;;;13.87;11.47;;;16.30;99.90;;;;;;4990978;28;20030;-68
2021/03/28 09:14:58;;;;;;;13.98;10.30;;;16.30;99.90;;;;;;4991530;28;20077;-67
2021/03/28 09:17:42;;;;;;;17.63;10.70;;;16.30;99.90;;;;;;4983533;28;20026;-67
2021/03/28 09:20:30;;;;;;;14.07;10.55;;;16.50;99.90;;;;;;4992329;28;20027;-65
2021/03/28 09:23:08;;;;;;;14.15;11.27;;;16.70;99.90;;;;;;4992095;28;20022;-66
2021/03/28 09:25:36;;;;;;;19.83;11.00;;;17.00;99.90;;;;;;4992791;28;20030;-67
2021/03/28 09:28:17;;;;;;;14.63;10.98;;;17.20;99.90;;;;;;4992742;28;20465;-64
2021/03/28 09:30:54;;;;;;;17.17;10.00;;;17.20;99.90;;;;;;4972123;28;20031;-63
2021/03/28 09:33:49;;;;;;;15.93;11.38;;;17.10;99.90;;;;;;4990388;28;20118;-71
2021/03/28 09:36:43;;;;;;;14.15;10.77;;;17.10;99.90;;;;;;4991364;28;20050;-65
2021/03/28 09:39:39;;;;;;;16.38;10.93;;;17.20;99.90;;;;;;4988962;28;20022;-67
2021/03/28 09:42:17;;;;;;;15.63;11.18;;;17.50;99.90;;;;;;4992067;28;20026;-67
2021/03/28 09:44:55;;;;;;;14.43;9.60;;;17.70;99.90;;;;;;4985332;28;20036;-67
2021/03/28 09:47:54;;;;;;;14.23;11.10;;;17.50;99.90;;;;;;4989775;28;20064;-67
2021/03/28 09:50:38;;;;;;;18.27;11.48;;;17.50;99.90;;;;;;4990151;28;20461;-67
2021/03/28 09:53:29;;;;;;;13.07;10.18;;;17.70;99.90;;;;;;4982470;28;20584;-69
2021/03/28 09:56:16;;;;;;;19.30;9.43;;;17.90;99.90;;;;;;4990882;28;20105;-66
2021/03/28 09:58:51;;;;;;;10.90;9.73;;;18.10;99.90;;;;;;4980649;28;20026;-65
2021/03/28 10:01:35;;;;;;;14.43;8.95;;;18.30;99.90;;;;;;4990706;28;20030;-65
2021/03/28 10:04:25;;;;;;;15.40;10.32;;;18.20;99.90;;;;;;4991148;28;20038;-66
2021/03/28 10:06:58;;;;;;;17.27;12.65;;;17.90;99.90;;;;;;4991337;28;20484;-65
2021/03/28 10:09:56;;;;;;;16.33;13.15;;;17.70;99.90;;;;;;4990955;28;20033;-66
2021/03/28 10:12:44;;;;;;;14.38;12.73;;;17.50;99.90;;;;;;4968726;28;20061;-70
2021/03/28 10:15:21;;;;;;;22.55;11.80;;;17.50;99.90;;;;;;4992507;28;20435;-70
2021/03/28 10:18:13;;;;;;;16.88;14.05;;;17.80;99.90;;;;;;4992281;28;20026;-73
2021/03/28 10:21:00;;;;;;;22.42;13.95;;;17.80;99.90;;;;;;4991624;28;20080;-70
2021/03/28 10:23:51;;;;;;;14.95;13.32;;;17.60;99.90;;;;;;4992776;28;20364;-70
2021/03/28 10:26:52;;;;;;;14.82;11.75;;;17.80;99.90;;;;;;4991370;28;20018;-71
2021/03/28 10:29:27;;;;;;;16.80;14.88;;;17.80;99.90;;;;;;4991115;28;20224;-70
2021/03/28 10:32:00;;;;;;;15.43;13.20;;;17.60;99.90;;;;;;4990722;28;20492;-70
2021/03/28 10:34:59;;;;;;;16.48;13.10;;;17.50;99.90;;;;;;4992223;28;20041;-71
2021/03/28 10:38:00;;;;;;;19.27;14.30;;;17.60;99.90;;;;;;4994442;28;20027;-69
2021/03/28 10:40:42;;;;;;;16.77;15.07;;;17.60;99.90;;;;;;4991859;28;20030;-71
2021/03/28 10:43:17;;;;;;;20.38;15.55;;;17.80;99.90;;;;;;4995662;28;20038;-71
2021/03/28 10:45:57;;;;;;;19.80;16.25;;;18.10;99.90;;;;;;5004346;28;20025;-70
2021/03/28 10:48:44;;;;;;;26.85;17.27;;;18.10;99.90;;;;;;4999839;28;20053;-70
2021/03/28 10:51:22;;;;;;;20.80;16.55;;;18.00;99.90;;;;;;4995180;28;20073;-68
2021/03/28 10:54:21;;;;;;;19.50;14.45;;;17.80;99.90;;;;;;4994648;28;20026;-70
2021/03/28 10:56:50;;;;;;;19.13;17.10;;;17.70;99.90;;;;;;4977660;28;20421;-70
2021/03/28 10:59:49;;;;;;;15.85;14.20;;;17.50;99.90;;;;;;4994441;28;20018;-71
2021/03/28 11:02:46;;;;;;;16.23;14.73;;;17.50;99.90;;;;;;4977318;28;20092;-70
2021/03/28 11:05:24;;;;;;;16.80;12.25;;;17.50;99.90;;;;;;4994811;28;20160;-71
2021/03/28 11:08:04;;;;;;;12.05;10.52;;;17.80;99.90;;;;;;4994588;28;20049;-71
2021/03/28 11:10:39;;;;;;;14.63;11.48;;;18.00;99.90;;;;;;4988677;28;20034;-68
2021/03/28 11:13:26;;;;;;;11.23;10.10;;;17.90;99.90;;;;;;4994506;28;20054;-69
2021/03/28 11:16:24;;;;;;;12.15;10.07;;;17.50;99.90;;;;;;4998487;28;20117;-70
2021/03/28 11:19:27;;;;;;;11.32;9.43;;;17.50;99.90;;;;;;4994733;28;20022;-70
2021/03/28 11:22:18;;;;;;;18.30;9.05;;;17.50;99.90;;;;;;4974279;28;20481;-72
2021/03/28 11:25:05;;;;;;;10.00;8.98;;;17.50;99.90;;;;;;4988546;28;20109;-71
2021/03/28 11:27:53;;;;;;;8.82;7.95;;;17.50;99.90;;;;;;4994047;28;20031;-68
2021/03/28 11:30:45;;;;;;;13.95;10.20;;;17.40;99.90;;;;;;4994401;28;20022;-69
2021/03/28 11:33:32;;;;;;;11.25;10.10;;;17.40;99.90;;;;;;4994005;28;20446;-68
2021/03/28 11:36:02;;;;;;;13.10;9.10;;;17.60;99.90;;;;;;4991997;28;20165;-70
2021/03/28 11:38:38;;;;;;;11.60;8.15;;;17.60;99.90;;;;;;4987983;28;20686;-72
2021/03/28 11:41:12;;;;;;;12.25;9.60;;;17.50;99.90;;;;;;4976670;28;20026;-72
2021/03/28 11:43:54;;;;;;;9.73;8.73;;;17.40;99.90;;;;;;4994143;28;20180;-71
2021/03/28 11:46:51;;;;;;;11.18;10.02;;;17.40;99.90;;;;;;4994190;28;20479;-71
2021/03/28 11:49:18;;;;;;;15.23;12.68;;;17.40;99.90;;;;;;4993748;28;20085;-70
2021/03/28 11:52:07;;;;;;;13.73;11.82;;;17.00;99.90;;;;;;4994518;28;20031;-69
2021/03/28 11:54:33;;;;;;;18.75;14.15;;;16.90;99.90;;;;;;4992914;28;20061;-72
2021/03/28 11:57:05;;;;;;;22.50;16.13;;;17.10;99.90;;;;;;4993884;28;20030;-70
2021/03/28 11:59:35;;;;;;;20.17;14.15;;;17.10;99.90;;;;;;4976221;28;20030;-69
2021/03/28 12:02:13;;;;;;;19.70;11.57;;;17.10;99.90;;;;;;4993423;28;20097;-69
2021/03/28 12:04:44;;;;;;;12.00;7.38;;;17.10;99.90;;;;;;4975400;28;20030;-70
2021/03/28 12:07:28;;;;;;;8.40;6.53;;;16.60;99.90;;;;;;4991779;28;20452;-70
2021/03/28 12:10:00;;;;;;;7.63;6.63;;;16.10;99.90;;;;;;4992802;28;20536;-70
2021/03/28 12:12:31;;;;;;;7.88;6.38;;;16.00;99.90;;;;;;4991836;28;20022;-72
2021/03/28 12:15:35;;;;;;;8.90;7.35;;;16.00;99.90;;;;;;4992387;28;20033;-69
2021/03/28 12:18:22;;;;;;;6.65;5.93;;;15.80;99.90;;;;;;4991594;28;20026;-70
2021/03/28 12:21:06;;;;;;;10.98;5.78;;;15.80;99.90;;;;;;4987332;28;20049;-72
2021/03/28 12:23:55;;;;;;;10.00;6.72;;;15.70;99.90;;;;;;4987163;28;20037;-72
2021/03/28 12:26:47;;;;;;;7.22;6.10;;;15.60;99.90;;;;;;4993491;28;20034;-73
2021/03/28 12:29:22;;;;;;;6.70;6.03;;;15.60;99.90;;;;;;4993479;28;20370;-73
2021/03/28 12:31:50;;;;;;;7.20;6.50;;;16.00;99.90;;;;;;4993243;28;20691;-69
2021/03/28 12:34:35;;;;;;;6.97;6.35;;;16.00;99.90;;;;;;4992889;28;20033;-71
2021/03/28 12:37:21;;;;;;;6.80;6.07;;;15.90;99.90;;;;;;4992902;28;20027;-71
2021/03/28 12:39:47;;;;;;;8.70;6.13;;;15.90;99.90;;;;;;4981729;28;20042;-72
2021/03/28 12:42:26;;;;;;;8.65;5.82;;;16.00;99.90;;;;;;4975077;28;20509;-70
2021/03/28 12:45:08;;;;;;;9.10;7.00;;;15.90;99.90;;;;;;4988286;28;20038;-70
2021/03/28 12:47:49;;;;;;;;;;;15.80;99.90;;;;;;4989417;28;20057;-71
2021/03/28 12:50:14;;;;;;;10.30;7.03;;;15.80;99.90;;;;;;4992663;28;19940;-68
2021/03/28 12:52:45;;;;;;;9.20;6.35;;;15.80;99.90;;;;;;4990984;28;20057;-70
2021/03/28 12:55:29;;;;;;;8.00;6.72;;;15.60;99.90;;;;;;4992606;28;20477;-68
2021/03/28 12:58:09;;;;;;;10.45;7.90;;;15.90;99.90;;;;;;4975308;28;20029;-71
2021/03/28 13:00:50;;;;;;;11.32;7.65;;;16.10;99.90;;;;;;4991044;28;20038;-68
2021/03/28 13:03:35;;;;;;;8.43;7.55;;;16.30;99.90;;;;;;4991216;28;20027;-70
2021/03/28 13:06:03;;;;;;;9.80;8.13;;;16.50;99.90;;;;;;4989919;28;20477;-69
2021/03/28 13:08:59;;;;;;;8.50;7.13;;;16.60;99.90;;;;;;4991813;28;20152;-70
2021/03/28 13:11:37;;;;;;;6.65;6.05;;;16.80;99.90;;;;;;4987881;28;20027;-69
2021/03/28 13:14:04;;;;;;;6.85;5.88;;;16.70;99.90;;;;;;4992001;28;20034;-70
2021/03/28 13:16:33;;;;;;;9.65;6.60;;;16.70;99.90;;;;;;4992157;28;20500;-71
2021/03/28 13:19:00;;;;;;;9.88;7.32;;;16.40;99.90;;;;;;4971647;28;20033;-71
2021/03/28 13:21:36;;;;;;;9.25;7.18;;;16.40;99.90;;;;;;4987949;28;20163;-69
2021/03/28 13:24:05;;;;;;;10.52;7.30;;;16.50;99.90;;;;;;4988798;28;20033;-68
2021/03/28 13:26:36;;;;;;;9.52;6.53;;;16.70;99.90;;;;;;4989243;28;20054;-71
2021/03/28 13:29:08;;;;;;;9.80;6.93;;;16.70;99.90;;;;;;4992126;28;20029;-70
2021/03/28 13:31:42;;;;;;;8.02;7.28;;;16.70;99.90;;;;;;4989989;28;20037;-71
2021/03/28 13:34:19;;;;;;;8.00;7.20;;;16.70;99.90;;;;;;4986752;28;20092;-71
2021/03/28 13:36:59;;;;;;;10.30;8.23;;;16.70;99.90;;;;;;4987879;28;20031;-70
2021/03/28 13:39:26;;;;;;;11.60;7.65;;;16.80;99.90;;;;;;4983691;28;20377;-69
2021/03/28 13:41:58;;;;;;;9.75;8.80;;;16.90;99.90;;;;;;4986575;28;20041;-68
2021/03/28 13:44:25;;;;;;;11.30;7.47;;;16.80;99.90;;;;;;4984556;28;20031;-69
2021/03/28 13:46:53;;;;;;;8.65;7.57;;;16.70;99.90;;;;;;4973855;28;20045;-69
2021/03/28 13:49:45;;;;;;;9.20;7.88;;;16.70;99.90;;;;;;4975493;28;20026;-69
2021/03/28 13:52:21;;;;;;;8.30;7.50;;;16.60;99.90;;;;;;4972072;28;20086;-71
2021/03/28 13:55:02;;;;;;;10.85;8.13;;;16.80;99.90;;;;;;4988141;28;20527;-69
2021/03/28 13:57:31;;;;;;;13.50;8.95;;;16.80;99.90;;;;;;4984424;28;20026;-71
2021/03/28 14:00:32;;;;;;;8.63;7.82;;;16.80;99.90;;;;;;4986606;28;20046;-70
2021/03/28 14:03:12;;;;;;;8.23;7.43;;;16.80;99.90;;;;;;4983682;28;20061;-70